Time;durP1;ratioP1;P1;durP2;ratioP2;P2;SDS_P1;SDS_P2;PMS_P1;PMS_P2;Temp;Humidity;BMP_temperature;BMP_pressure;BME280_temperature;BME280_humidity;BME280_pressure;Samples;Min_cycle;Max_cycle;Signal;HPM_P1;HPM_P2
2023/03/20 00:05:20;;;;;;;8.63;3.58;;;;;;;8.48;89.03;101575.50;10113686;29;20037;-83
2023/03/20 00:10:34;;;;;;;9.50;3.08;;;;;;;8.37;89.15;101582.91;10126579;29;20065;-84
2023/03/20 00:15:48;;;;;;;14.63;4.13;;;;;;;8.36;89.35;101591.59;10141088;29;20113;-83
2023/03/20 00:21:19;;;;;;;9.70;3.67;;;;;;;8.32;89.51;101587.94;10110015;29;20532;-84
2023/03/20 00:26:27;;;;;;;6.07;2.67;;;;;;;8.23;89.59;101595.41;10083305;29;20053;-83
2023/03/20 00:31:37;;;;;;;7.13;2.80;;;;;;;8.19;89.44;101598.72;10116908;29;20048;-84
2023/03/20 00:36:44;;;;;;;6.93;2.20;;;;;;;8.15;89.28;101596.81;10123004;29;20146;-83
2023/03/20 00:41:54;;;;;;;5.22;2.58;;;;;;;8.13;89.17;101594.16;10097165;29;20876;-83
2023/03/20 00:47:08;;;;;;;3.58;1.75;;;;;;;8.05;89.14;101584.25;10111532;29;20072;-83
2023/03/20 00:52:15;;;;;;;4.28;1.58;;;;;;;7.96;88.96;101593.47;10089625;29;20418;-84
2023/03/20 00:57:34;;;;;;;5.03;2.15;;;;;;;7.96;89.03;101593.47;10094808;29;20930;-84
2023/03/20 01:02:42;;;;;;;4.60;1.65;;;;;;;7.94;89.24;101597.75;10104350;29;20057;-84
2023/03/20 01:07:52;;;;;;;5.03;2.35;;;;;;;7.95;89.12;101615.16;10116618;29;20470;-82
2023/03/20 01:13:12;;;;;;;3.50;1.58;;;;;;;7.87;89.31;101628.75;10102366;29;20049;-83
2023/03/20 01:18:16;;;;;;;4.60;1.90;;;;;;;7.84;89.44;101634.72;10082718;29;20045;-85
2023/03/20 01:23:27;;;;;;;3.97;1.73;;;;;;;7.78;89.54;101637.94;10097741;29;20052;-84
2023/03/20 01:28:35;;;;;;;7.05;2.55;;;;;;;7.66;89.67;101631.34;10112155;29;20057;-83
2023/03/20 01:33:45;;;;;;;5.28;1.88;;;;;;;7.59;89.74;101631.03;10096264;29;20057;-83
2023/03/20 01:38:57;;;;;;;4.95;1.90;;;;;;;7.54;90.06;101622.16;10095825;29;20068;-85
2023/03/20 01:44:15;;;;;;;4.03;1.73;;;;;;;7.52;90.02;101612.47;10086412;29;20380;-82
2023/03/20 01:49:19;;;;;;;5.05;2.55;;;;;;;7.55;89.86;101628.25;10107997;29;20057;-82
2023/03/20 01:54:37;;;;;;;4.53;2.00;;;;;;;7.51;90.06;101627.25;10102214;29;20568;-83
2023/03/20 01:59:47;;;;;;;;;;;;;;;7.53;90.00;101624.69;10115385;29;20048;-83
2023/03/20 02:05:00;;;;;;;5.13;1.83;;;;;;;7.51;89.97;101611.59;10115591;29;20314;-84
2023/03/20 02:10:11;;;;;;;7.05;2.00;;;;;;;7.52;89.90;101617.69;10113554;29;20055;-83
2023/03/20 02:15:26;;;;;;;5.53;1.38;;;;;;;7.54;89.91;101616.94;10092765;29;20113;-83
2023/03/20 02:21:11;;;;;;;3.83;1.83;;;;;;;7.53;89.95;101617.75;10120961;29;20192;-82
2023/03/20 02:26:53;;;;;;;4.50;2.17;;;;;;;7.48;89.68;101610.59;10129186;29;20391;-83
2023/03/20 02:32:40;;;;;;;5.47;2.38;;;;;;;7.39;89.85;101608.47;10107481;29;20063;-83
2023/03/20 02:37:57;;;;;;;3.92;1.70;;;;;;;7.38;89.98;101601.47;10141411;29;20064;-83
2023/03/20 02:43:16;;;;;;;5.47;2.47;;;;;;;7.36;90.12;101585.78;10108572;29;20060;-83
2023/03/20 02:48:21;;;;;;;;;;;;;;;7.38;90.10;101578.03;10133026;29;20080;-83
2023/03/20 02:53:53;;;;;;;4.07;1.77;;;;;;;7.38;90.18;101572.81;10114445;29;19933;-84
2023/03/20 02:59:23;;;;;;;6.43;2.17;;;;;;;7.32;90.31;101572.56;10123951;29;20045;-82
2023/03/20 03:04:35;;;;;;;6.03;1.80;;;;;;;7.36;90.53;101572.75;10099630;29;20059;-83
2023/03/20 03:09:49;;;;;;;3.22;1.67;;;;;;;7.34;90.17;101569.19;10116053;29;20077;-83
2023/03/20 03:15:06;;;;;;;2.53;1.33;;;;;;;7.33;90.62;101561.31;10097438;29;20518;-82
2023/03/20 03:20:37;;;;;;;4.95;2.00;;;;;;;7.32;90.70;101559.53;10105765;29;20420;-84
2023/03/20 03:25:47;;;;;;;3.13;1.60;;;;;;;7.35;90.81;101549.22;10105802;29;20123;-84
2023/03/20 03:30:52;;;;;;;4.38;1.85;;;;;;;7.31;90.85;101549.91;10097979;29;20059;-83
2023/03/20 03:36:38;;;;;;;2.83;1.38;;;;;;;7.30;91.05;101541.22;10103771;29;20102;-84
2023/03/20 03:41:51;;;;;;;5.32;2.30;;;;;;;7.33;91.09;101545.69;10096419;29;20610;-83
2023/03/20 03:47:11;;;;;;;5.85;2.15;;;;;;;7.30;91.24;101549.03;10116241;29;20113;-84
2023/03/20 03:52:24;;;;;;;5.90;2.28;;;;;;;7.29;91.29;101541.16;10105027;29;20421;-84
2023/03/20 03:57:52;;;;;;;6.00;2.08;;;;;;;7.32;91.69;101541.28;10106207;29;20053;-83
2023/03/20 04:03:00;;;;;;;6.53;2.47;;;;;;;7.32;91.33;101536.06;10120120;29;20099;-84
2023/03/20 04:08:10;;;;;;;3.50;1.70;;;;;;;7.30;91.29;101540.34;10118673;29;20466;-83
2023/03/20 04:13:18;;;;;;;5.45;2.33;;;;;;;7.29;91.13;101531.63;10096622;29;20529;-84
2023/03/20 04:18:24;;;;;;;7.83;2.33;;;;;;;7.29;91.37;101526.41;10113103;29;20145;-84
2023/03/20 04:23:34;;;;;;;3.10;1.42;;;;;;;7.29;91.48;101520.31;10102928;29;20061;-84
2023/03/20 04:28:48;;;;;;;7.38;2.72;;;;;;;7.27;91.66;101517.66;10114179;29;20406;-82
2023/03/20 04:34:23;;;;;;;4.18;2.05;;;;;;;7.26;91.66;101521.94;10103760;29;20053;-83
2023/03/20 04:39:41;;;;;;;4.30;1.63;;;;;;;7.28;91.61;101509.03;10116601;29;20061;-83
2023/03/20 04:44:48;;;;;;;5.25;1.80;;;;;;;7.25;91.62;101520.19;10096342;29;20053;-82
2023/03/20 04:49:57;;;;;;;5.97;2.03;;;;;;;7.23;91.91;101524.44;10081458;29;20059;-84
2023/03/20 04:55:05;;;;;;;5.22;2.35;;;;;;;7.23;91.96;101518.34;10115441;29;20052;-83
2023/03/20 05:00:25;;;;;;;8.00;2.40;;;;;;;7.22;91.88;101530.47;10092539;29;20065;-83
2023/03/20 05:05:30;;;;;;;3.42;2.05;;;;;;;7.20;92.00;101532.09;10114250;29;20082;-83
2023/03/20 05:10:35;;;;;;;6.22;2.17;;;;;;;7.19;91.57;101535.56;10120346;29;20422;-83
2023/03/20 05:15:56;;;;;;;5.03;1.40;;;;;;;7.20;91.34;101523.41;10111921;29;20521;-83
2023/03/20 05:21:30;;;;;;;2.13;1.33;;;;;;;7.15;91.09;101522.34;10076425;29;20084;-84
2023/03/20 05:26:52;;;;;;;;;;;;;;;7.14;90.93;101529.25;10077676;29;20605;-83
2023/03/20 05:32:26;;;;;;;3.42;1.85;;;;;;;7.16;90.77;101539.72;10111485;29;19931;-83
2023/03/20 05:37:51;;;;;;;4.20;1.60;;;;;;;7.15;90.56;101533.63;10098152;29;20454;-83
2023/03/20 05:43:19;;;;;;;4.20;1.60;;;;;;;7.11;90.63;101534.31;10105956;29;20053;-83
2023/03/20 05:48:53;;;;;;;7.93;2.38;;;;;;;7.08;90.40;101536.81;10088670;29;20063;-84
2023/03/20 05:54:26;;;;;;;3.65;2.05;;;;;;;7.11;90.21;101547.34;10129007;29;20671;-83
2023/03/20 06:00:13;;;;;;;4.75;2.13;;;;;;;7.14;89.80;101546.59;10108395;29;20739;-83
2023/03/20 06:06:20;;;;;;;3.40;1.92;;;;;;;7.14;89.78;101559.63;10117948;29;20068;-83
2023/03/20 06:11:34;;;;;;;5.10;2.45;;;;;;;7.16;89.52;101561.47;10136626;29;20048;-83
2023/03/20 06:16:59;;;;;;;5.97;2.60;;;;;;;7.18;89.29;101561.53;10097553;29;20084;-86
2023/03/20 06:22:03;;;;;;;5.57;2.38;;;;;;;7.20;88.99;101550.34;10116532;29;20052;-83
2023/03/20 06:27:05;;;;;;;5.05;2.25;;;;;;;7.19;88.78;101551.19;10122116;29;20048;-84
2023/03/20 06:32:16;;;;;;;5.15;2.50;;;;;;;7.20;88.83;101558.16;10122905;29;20045;-84
2023/03/20 06:37:25;;;;;;;5.00;2.40;;;;;;;7.17;88.60;101571.06;10129364;29;20048;-85
2023/03/20 06:42:38;;;;;;;6.22;3.53;;;;;;;7.24;88.66;101578.31;10091485;29;20488;-85
2023/03/20 06:47:41;;;;;;;8.02;2.95;;;;;;;7.25;88.18;101573.97;10082684;29;20045;-86
2023/03/20 06:52:45;;;;;;;5.97;2.58;;;;;;;7.28;88.03;101565.41;10118274;29;20089;-86
2023/03/20 06:58:07;;;;;;;6.18;2.17;;;;;;;7.30;87.82;101559.47;10108840;29;20399;-85
2023/03/20 07:03:10;;;;;;;4.78;2.53;;;;;;;7.30;87.77;101567.28;10105642;29;20500;-87
2023/03/20 07:08:12;;;;;;;7.03;2.63;;;;;;;7.37;87.41;101571.94;10110733;29;20044;-87
2023/03/20 07:13:13;;;;;;;4.93;1.77;;;;;;;7.43;87.10;101571.28;10090987;29;20051;-84
2023/03/20 07:18:17;;;;;;;8.18;3.00;;;;;;;7.47;87.02;101578.41;10106310;29;20053;-86
2023/03/20 07:23:20;;;;;;;5.07;2.67;;;;;;;7.55;86.76;101587.47;10105817;29;20053;-85
2023/03/20 07:28:22;;;;;;;7.20;2.42;;;;;;;7.63;86.26;101605.09;10121292;29;20052;-85
2023/03/20 07:33:33;;;;;;;7.35;1.73;;;;;;;7.66;85.70;101593.13;10106427;29;20857;-84
2023/03/20 07:38:35;;;;;;;6.78;2.30;;;;;;;7.67;85.49;101596.59;10095174;29;20079;-85
2023/03/20 07:43:44;;;;;;;6.22;2.17;;;;;;;7.66;84.99;101594.84;10112302;29;20061;-87
2023/03/20 07:48:58;;;;;;;9.07;2.17;;;;;;;7.73;84.95;101602.97;10151783;29;20132;-87
2023/03/20 07:54:00;;;;;;;4.90;2.08;;;;;;;7.82;84.33;101599.88;10109469;29;20052;-85
2023/03/20 07:59:02;;;;;;;5.00;2.33;;;;;;;7.86;84.10;101599.13;10097303;29;20052;-85
2023/03/20 08:04:05;;;;;;;5.43;2.20;;;;;;;8.00;83.85;101601.44;10110232;29;20044;-86
2023/03/20 08:09:10;;;;;;;10.15;2.75;;;;;;;8.01;83.26;101606.69;10106557;29;20057;-87
2023/03/20 08:14:14;;;;;;;6.65;2.78;;;;;;;8.01;82.83;101604.09;10110342;29;20052;-86
2023/03/20 08:19:16;;;;;;;8.48;2.80;;;;;;;8.15;82.55;101607.25;10109379;29;20076;-87
2023/03/20 08:24:18;;;;;;;7.22;2.97;;;;;;;8.23;82.09;101605.84;10111001;29;20052;-85
2023/03/20 08:29:21;;;;;;;4.80;1.90;;;;;;;8.23;81.46;101621.50;10116259;29;20045;-85
2023/03/20 08:34:29;;;;;;;4.32;2.03;;;;;;;8.19;81.23;101614.38;10106404;29;20060;-85
2023/03/20 08:39:35;;;;;;;7.53;2.33;;;;;;;8.22;80.72;101614.50;10085813;29;20147;-86
2023/03/20 08:44:39;;;;;;;9.90;2.78;;;;;;;8.30;80.44;101614.81;10102101;29;20060;-86
2023/03/20 08:49:42;;;;;;;6.28;2.35;;;;;;;8.45;79.80;101604.13;10111474;29;20053;-85
2023/03/20 08:54:43;;;;;;;4.13;1.77;;;;;;;8.61;79.60;101603.88;10103268;29;20476;-85
2023/03/20 08:59:45;;;;;;;6.15;2.47;;;;;;;8.69;79.01;101601.53;10121152;29;20045;-84
2023/03/20 09:04:50;;;;;;;6.85;2.50;;;;;;;8.89;78.62;101591.88;10113583;29;20041;-84
2023/03/20 09:09:52;;;;;;;5.07;2.75;;;;;;;8.86;77.93;101599.59;10109680;29;20048;-85
2023/03/20 09:14:53;;;;;;;6.05;2.10;;;;;;;8.72;77.30;101606.00;10112012;29;20068;-84
2023/03/20 09:19:55;;;;;;;6.47;2.25;;;;;;;8.73;76.89;101613.00;10110326;29;20091;-84
2023/03/20 09:24:57;;;;;;;3.70;1.65;;;;;;;8.71;76.66;101609.44;10114201;29;20051;-86
2023/03/20 09:29:58;;;;;;;5.47;2.00;;;;;;;8.69;76.27;101611.09;10107041;29;20793;-87
2023/03/20 09:35:01;;;;;;;5.22;1.67;;;;;;;8.79;76.12;101603.69;10104468;29;20055;-85
2023/03/20 09:40:07;;;;;;;6.10;2.38;;;;;;;8.84;75.79;101612.59;10112107;29;20053;-85
2023/03/20 09:45:27;;;;;;;5.65;1.73;;;;;;;8.93;75.86;101612.06;10085879;29;20528;-85
2023/03/20 09:50:41;;;;;;;6.85;1.80;;;;;;;8.91;75.27;101604.97;10118509;29;20076;-85
2023/03/20 09:55:43;;;;;;;2.45;1.40;;;;;;;8.98;75.06;101605.25;10109094;29;20061;-86
2023/03/20 10:21:22;;;;;;;3.92;1.50;;;;;;;9.61;72.98;101588.28;9694274;30;20066;-85
2023/03/20 10:26:27;;;;;;;4.30;1.40;;;;;;;9.85;72.31;101597.81;9743598;30;20057;-85
2023/03/20 10:31:44;;;;;;;2.92;1.33;;;;;;;9.70;71.64;101599.06;10047793;29;21523;-85
2023/03/20 10:37:07;;;;;;;3.58;1.30;;;;;;;9.75;71.40;101590.47;10079436;29;20565;-85
2023/03/20 10:42:21;;;;;;;2.00;1.10;;;;;;;9.87;71.21;101585.66;10055942;29;20121;-86
2023/03/20 10:47:27;;;;;;;3.63;1.70;;;;;;;10.05;70.73;101562.69;10063817;29;20132;-85
2023/03/20 10:52:32;;;;;;;3.72;1.80;;;;;;;11.08;70.39;101580.59;10046957;29;20089;-86
2023/03/20 10:57:41;;;;;;;3.95;1.77;;;;;;;11.02;68.87;101582.16;10096004;29;20506;-84
2023/03/20 11:02:45;;;;;;;6.07;2.03;;;;;;;10.93;68.17;101577.56;10114370;29;20084;-85
2023/03/20 11:07:51;;;;;;;5.38;1.80;;;;;;;11.42;67.83;101573.63;10123949;29;20429;-86
2023/03/20 11:12:54;;;;;;;3.25;1.77;;;;;;;11.14;66.92;101569.41;10111353;29;20466;-85
2023/03/20 11:18:06;;;;;;;4.63;1.60;;;;;;;11.22;66.77;101566.97;10125301;29;20147;-88
2023/03/20 11:23:19;;;;;;;7.37;1.83;;;;;;;10.95;66.34;101557.53;10102857;29;20616;-84
2023/03/20 11:28:24;;;;;;;6.85;1.83;;;;;;;11.08;66.41;101558.72;10109233;29;20049;-83
2023/03/20 11:33:27;;;;;;;3.70;1.55;;;;;;;11.29;66.10;101554.06;10123418;29;20424;-83
2023/03/20 11:38:30;;;;;;;6.82;1.83;;;;;;;10.94;65.66;101554.03;10123390;29;21423;-78
2023/03/20 11:43:37;;;;;;;5.10;2.17;;;;;;;10.78;65.35;101564.91;10117199;29;20055;-82
2023/03/20 11:48:43;;;;;;;6.65;2.47;;;;;;;10.71;65.68;101552.47;10119221;29;20051;-86
2023/03/20 11:53:47;;;;;;;5.65;2.25;;;;;;;10.63;65.74;101554.88;10120547;29;20060;-84
2023/03/20 11:59:05;;;;;;;5.97;1.73;;;;;;;10.51;65.83;101552.78;10101934;29;20108;-85
2023/03/20 12:04:12;;;;;;;5.73;2.43;;;;;;;10.42;65.77;101555.13;10106098;29;20088;-83
2023/03/20 12:09:28;;;;;;;5.18;1.75;;;;;;;10.34;65.70;101554.00;10113399;29;20057;-84
2023/03/20 12:15:04;;;;;;;2.97;1.67;;;;;;;10.28;65.95;101554.66;10105607;29;20116;-84
2023/03/20 12:20:31;;;;;;;6.93;1.52;;;;;;;10.33;66.03;101555.75;10118390;29;20441;-84
2023/03/20 12:25:41;;;;;;;4.45;1.73;;;;;;;10.25;66.04;101546.72;10093442;29;20052;-83
2023/03/20 12:30:57;;;;;;;4.63;1.90;;;;;;;10.18;65.89;101543.03;10120418;29;20109;-84
2023/03/20 12:36:00;;;;;;;8.45;2.42;;;;;;;10.28;66.12;101544.19;10121101;29;20621;-84
2023/03/20 12:41:14;;;;;;;8.05;1.80;;;;;;;10.42;66.14;101539.44;10103363;29;20135;-84
2023/03/20 12:46:27;;;;;;;3.20;1.70;;;;;;;10.51;65.81;101544.94;10121449;29;20108;-84
2023/03/20 12:51:51;;;;;;;6.75;1.75;;;;;;;10.56;65.99;101539.81;10124813;29;20067;-83
2023/03/20 12:57:06;;;;;;;7.15;2.47;;;;;;;10.55;65.90;101535.41;10096177;29;20049;-85
2023/03/20 13:02:39;;;;;;;6.28;1.55;;;;;;;10.42;65.94;101527.22;10114106;29;20131;-84
2023/03/20 13:08:10;;;;;;;3.78;1.58;;;;;;;10.40;65.93;101526.28;10103836;29;20059;-85
2023/03/20 13:13:32;;;;;;;3.80;1.70;;;;;;;10.39;66.36;101527.13;10123273;29;20115;-84
2023/03/20 13:19:00;;;;;;;4.78;1.60;;;;;;;10.35;66.32;101517.38;10138232;29;20469;-84
2023/03/20 13:24:20;;;;;;;4.43;2.33;;;;;;;10.14;66.57;101512.38;10143136;29;20116;-83
2023/03/20 13:29:43;;;;;;;5.20;1.50;;;;;;;10.16;66.57;101509.78;10106005;29;20049;-82
2023/03/20 13:34:58;;;;;;;3.72;1.58;;;;;;;10.13;66.70;101520.16;10123526;29;20615;-83
2023/03/20 13:40:15;;;;;;;4.57;1.98;;;;;;;9.99;66.96;101520.63;10116368;29;20536;-84
2023/03/20 13:45:20;;;;;;;5.47;2.13;;;;;;;9.91;67.38;101515.16;10124736;29;20056;-84
2023/03/20 13:50:37;;;;;;;8.57;2.88;;;;;;;9.81;67.93;101517.44;10118400;29;20433;-84
2023/03/20 13:55:47;;;;;;;6.40;1.80;;;;;;;9.68;68.37;101517.06;10129698;29;20056;-83
2023/03/20 14:01:28;;;;;;;5.47;1.88;;;;;;;9.60;68.94;101522.88;10127742;29;20057;-82
2023/03/20 14:06:29;;;;;;;2.63;1.40;;;;;;;9.58;69.88;101528.06;10120319;29;20057;-83
2023/03/20 14:11:35;;;;;;;3.30;1.95;;;;;;;9.43;70.63;101540.59;10109657;29;20080;-85
2023/03/20 14:16:37;;;;;;;4.28;1.75;;;;;;;9.30;71.53;101544.53;10108081;29;20057;-87
2023/03/20 14:21:43;;;;;;;5.93;1.55;;;;;;;9.08;73.03;101527.22;10111704;29;20076;-86
2023/03/20 14:27:04;;;;;;;7.72;2.63;;;;;;;9.03;74.49;101527.94;10108461;29;20060;-86
2023/03/20 14:32:18;;;;;;;3.95;1.88;;;;;;;9.12;75.73;101523.88;10111135;29;20056;-87
2023/03/20 14:37:37;;;;;;;7.15;2.50;;;;;;;9.19;75.95;101502.34;10119216;29;20049;-86
2023/03/20 14:42:57;;;;;;;9.13;1.85;;;;;;;9.34;76.02;101495.03;10113627;29;20048;-88
2023/03/20 14:48:00;;;;;;;;;;;;;;;9.28;76.07;101507.00;10115346;29;20077;-86
2023/03/20 14:53:20;;;;;;;7.75;1.90;;;;;;;9.18;75.90;101493.59;10099661;29;20392;-86
2023/03/20 14:58:37;;;;;;;6.20;2.42;;;;;;;9.09;76.12;101505.47;10088291;29;20048;-86
2023/03/20 15:03:40;;;;;;;6.90;1.90;;;;;;;9.12;76.11;101482.94;10112639;29;20580;-87
2023/03/20 15:09:07;;;;;;;3.72;1.85;;;;;;;9.06;75.87;101492.31;10118805;29;20552;-84
2023/03/20 15:14:14;;;;;;;7.30;2.40;;;;;;;9.01;75.99;101493.03;10116977;29;20081;-80
2023/03/20 15:19:18;;;;;;;5.80;2.30;;;;;;;9.05;75.89;101495.75;10091037;29;20053;-85
2023/03/20 15:24:28;;;;;;;4.25;2.05;;;;;;;9.08;75.79;101488.03;10103447;29;20076;-87
2023/03/20 15:29:34;;;;;;;4.72;2.17;;;;;;;9.12;75.88;101497.75;10110577;29;20041;-88
2023/03/20 15:34:39;;;;;;;11.88;2.22;;;;;;;9.07;75.49;101499.28;10116473;29;20072;-85
2023/03/20 15:39:47;;;;;;;3.20;1.63;;;;;;;9.00;75.51;101480.81;10115598;29;20492;-79
2023/03/20 15:44:52;;;;;;;4.53;1.60;;;;;;;9.02;75.41;101478.25;10127527;29;20514;-79
2023/03/20 15:49:59;;;;;;;6.07;2.00;;;;;;;8.93;75.45;101475.31;10128036;29;20044;-82
2023/03/20 15:55:06;;;;;;;3.40;2.15;;;;;;;8.92;75.49;101482.28;10121772;29;20076;-82
2023/03/20 16:00:15;;;;;;;2.83;1.38;;;;;;;8.89;75.56;101479.56;10138061;29;20087;-81
2023/03/20 16:05:22;;;;;;;3.45;1.75;;;;;;;8.78;75.54;101476.56;10111981;29;20540;-80
2023/03/20 16:10:28;;;;;;;2.35;1.40;;;;;;;8.74;75.84;101486.84;10116460;29;20053;-80
2023/03/20 16:15:32;;;;;;;5.60;2.28;;;;;;;8.65;75.92;101480.44;10114893;29;20056;-82
2023/03/20 16:20:38;;;;;;;3.47;1.50;;;;;;;8.64;76.45;101489.09;10109676;29;20097;-82
2023/03/20 16:25:40;;;;;;;4.82;1.17;;;;;;;8.62;76.89;101485.56;10114314;29;20041;-82
2023/03/20 16:30:45;;;;;;;1.60;0.82;;;;;;;8.49;77.16;101493.78;10113169;29;20425;-84
2023/03/20 16:35:49;;;;;;;2.25;1.02;;;;;;;8.37;77.62;101493.28;10107303;29;20063;-82
2023/03/20 16:41:15;;;;;;;7.50;1.58;;;;;;;8.35;78.16;101497.56;10086597;29;20135;-84
2023/03/20 16:46:23;;;;;;;3.10;1.40;;;;;;;8.12;78.96;101484.53;10096016;29;20056;-82
2023/03/20 16:51:29;;;;;;;4.72;1.80;;;;;;;8.01;79.96;101489.34;10108156;29;20073;-83
2023/03/20 16:56:36;;;;;;;2.58;1.05;;;;;;;7.71;81.48;101491.63;10121303;29;20069;-82
2023/03/20 17:01:47;;;;;;;1.23;1.10;;;;;;;7.52;82.69;101490.91;10111520;29;20051;-82
2023/03/20 17:07:26;;;;;;;2.42;1.17;;;;;;;7.46;84.07;101492.34;10125647;29;20147;-84
2023/03/20 17:12:51;;;;;;;2.35;1.17;;;;;;;7.35;84.93;101484.09;10090335;29;20100;-85
2023/03/20 17:24:24;;;;;;;3.42;1.63;;;;;;;7.11;86.95;101492.66;10111584;29;20049;-83
2023/03/20 17:29:29;;;;;;;3.20;1.48;;;;;;;6.96;87.87;101495.50;10079445;29;20554;-84
2023/03/20 17:34:30;;;;;;;2.90;1.77;;;;;;;6.94;88.47;101493.66;10089557;29;20620;-82
2023/03/20 17:39:32;;;;;;;2.53;1.60;;;;;;;6.92;89.26;101497.91;10096315;29;20132;-83
2023/03/20 17:44:34;;;;;;;1.52;1.08;;;;;;;6.85;89.90;101494.16;10101554;29;20674;-84
2023/03/20 17:49:36;;;;;;;2.67;1.75;;;;;;;6.79;90.37;101494.78;10100869;29;20117;-83
2023/03/20 17:54:37;;;;;;;1.42;1.10;;;;;;;6.64;91.14;101479.38;10091302;29;20053;-83
2023/03/20 17:59:39;;;;;;;3.33;1.67;;;;;;;6.65;91.26;101485.44;10083048;29;20045;-83
2023/03/20 18:04:45;;;;;;;2.70;1.25;;;;;;;6.64;91.39;101494.97;10102842;29;20513;-84
2023/03/20 18:09:47;;;;;;;2.00;1.05;;;;;;;6.61;91.81;101492.25;10098305;29;20502;-83
2023/03/20 18:14:49;;;;;;;6.22;1.63;;;;;;;6.64;92.21;101484.56;10101405;29;20106;-83
2023/03/20 18:19:51;;;;;;;1.17;1.00;;;;;;;6.60;92.24;101484.38;10091679;29;20049;-83
2023/03/20 18:24:53;;;;;;;2.85;1.52;;;;;;;6.66;92.22;101487.25;10117419;29;20049;-84
2023/03/20 18:29:55;;;;;;;2.17;1.38;;;;;;;6.67;92.30;101489.03;10088191;29;20056;-83
2023/03/20 18:34:56;;;;;;;2.47;1.50;;;;;;;6.67;92.54;101489.03;10102674;29;20105;-83
2023/03/20 18:39:59;;;;;;;2.45;1.33;;;;;;;6.66;92.48;101495.03;10085549;29;20061;-83
2023/03/20 18:45:01;;;;;;;2.65;1.20;;;;;;;6.65;92.80;101494.16;10106814;29;20132;-82
2023/03/20 18:50:03;;;;;;;1.90;1.13;;;;;;;6.61;92.69;101492.25;10114973;29;20092;-82
2023/03/20 18:55:06;;;;;;;1.98;1.48;;;;;;;6.57;92.73;101487.72;10097806;29;20086;-83
2023/03/20 19:00:21;;;;;;;2.70;1.20;;;;;;;6.54;92.88;101483.28;10109361;29;20434;-83
2023/03/20 19:05:30;;;;;;;2.30;1.38;;;;;;;6.58;92.90;101480.81;10109267;29;20064;-84
2023/03/20 19:10:38;;;;;;;3.10;1.40;;;;;;;6.57;93.00;101474.69;10102864;29;20053;-84
2023/03/20 19:15:41;;;;;;;2.40;1.50;;;;;;;6.53;93.14;101473.69;10062832;29;20076;-84
2023/03/20 19:20:52;;;;;;;2.95;1.45;;;;;;;6.50;93.43;101472.66;10121933;29;20453;-82
2023/03/20 19:25:59;;;;;;;6.13;1.95;;;;;;;6.46;93.70;101466.44;10124055;29;20053;-84
2023/03/20 19:31:03;;;;;;;1.73;1.15;;;;;;;6.48;93.85;101462.16;10116138;29;20136;-84
2023/03/20 19:36:22;;;;;;;3.10;1.55;;;;;;;6.47;94.06;101462.09;10109996;29;20637;-84
2023/03/20 19:41:26;;;;;;;5.25;2.05;;;;;;;6.52;94.30;101463.22;10078865;29;20128;-82
2023/03/20 19:46:28;;;;;;;6.20;2.38;;;;;;;6.51;94.55;101454.50;10114498;29;20064;-83
2023/03/20 19:51:47;;;;;;;2.78;1.73;;;;;;;6.48;94.65;101453.50;10092411;29;20053;-84
2023/03/20 19:56:49;;;;;;;4.47;2.42;;;;;;;6.52;94.84;101453.69;10092698;29;20084;-83
2023/03/20 20:01:52;;;;;;;6.70;2.83;;;;;;;6.55;95.04;101447.75;10122125;29;20055;-84
2023/03/20 20:07:06;;;;;;;5.35;2.85;;;;;;;6.54;95.09;101452.06;10099097;29;20053;-84
2023/03/20 20:12:37;;;;;;;5.30;3.05;;;;;;;6.58;95.28;101457.41;10097953;29;20067;-83
2023/03/20 20:17:42;;;;;;;5.40;2.63;;;;;;;6.63;95.27;101448.06;10106294;29;20177;-83
2023/03/20 20:22:48;;;;;;;2.35;1.63;;;;;;;6.67;95.41;101444.78;10097339;29;20158;-83
2023/03/20 20:27:53;;;;;;;4.93;2.45;;;;;;;6.65;95.42;101451.63;10094415;29;20136;-84
2023/03/20 20:32:57;;;;;;;14.77;2.70;;;;;;;6.68;95.64;101441.34;10084420;29;20110;-83
2023/03/20 20:38:05;;;;;;;5.93;3.67;;;;;;;6.66;95.57;101440.41;10100656;29;20533;-84
2023/03/20 20:43:33;;;;;;;6.18;2.95;;;;;;;6.69;95.61;101438.81;10079632;29;20119;-84
2023/03/20 20:48:56;;;;;;;6.72;2.92;;;;;;;6.67;95.68;101435.25;10082349;29;20048;-84
2023/03/20 20:55:04;;;;;;;7.32;3.70;;;;;;;6.68;96.05;101436.13;10094317;29;20061;-84
2023/03/20 21:00:52;;;;;;;9.07;4.00;;;;;;;6.70;96.06;101431.91;10107253;29;20461;-84
2023/03/20 21:06:05;;;;;;;;;;;;;;;6.73;96.36;101437.25;10077121;29;20532;-84
2023/03/20 21:11:59;;;;;;;6.22;3.67;;;;;;;6.73;96.43;101430.31;10094553;29;19983;-84
2023/03/20 21:17:12;;;;;;;5.32;2.90;;;;;;;6.73;96.76;101439.84;10067704;29;20421;-84
2023/03/20 21:22:57;;;;;;;10.68;4.53;;;;;;;6.74;96.84;101433.81;10094080;29;20135;-84
2023/03/20 21:28:42;;;;;;;8.20;3.83;;;;;;;6.78;97.16;101433.09;10083436;29;20049;-85
2023/03/20 21:34:24;;;;;;;10.63;5.03;;;;;;;6.83;97.15;101434.22;10095567;29;20416;-85
2023/03/20 21:39:52;;;;;;;6.82;3.70;;;;;;;6.85;97.29;101422.13;10115744;29;20056;-84
2023/03/20 21:45:24;;;;;;;7.50;4.03;;;;;;;6.87;97.37;101417.88;10103182;29;20663;-84
2023/03/20 21:51:07;;;;;;;6.72;3.97;;;;;;;6.92;97.55;101419.78;10124694;29;20053;-85
2023/03/20 21:56:42;;;;;;;10.55;5.15;;;;;;;6.90;97.57;101420.63;10100553;29;20053;-86
2023/03/20 22:02:16;;;;;;;9.25;4.20;;;;;;;6.94;97.75;101423.38;10095680;29;20083;-84
2023/03/20 22:07:34;;;;;;;9.45;5.20;;;;;;;6.92;97.71;101422.41;10109290;29;20169;-85
2023/03/20 22:13:31;;;;;;;9.18;4.57;;;;;;;6.96;97.85;101414.78;10115412;29;20084;-85
2023/03/20 22:18:51;;;;;;;9.07;5.10;;;;;;;6.99;98.01;101421.84;10085372;29;20143;-85
2023/03/20 22:25:08;;;;;;;8.27;4.38;;;;;;;7.05;98.19;101416.88;10110270;29;20059;-86
2023/03/20 22:31:34;;;;;;;7.45;4.13;;;;;;;7.06;98.18;101418.66;10103092;29;20503;-84
2023/03/20 22:37:06;;;;;;;9.65;5.40;;;;;;;7.07;98.29;101436.03;9975026;29;20062;-85
2023/03/20 22:43:05;;;;;;;11.02;4.25;;;;;;;7.11;98.46;101419.72;9991474;29;20432;-86
2023/03/20 22:55:18;;;;;;;7.35;4.13;;;;;;;7.15;98.56;101408.63;10000699;29;20105;-86
2023/03/20 23:00:56;;;;;;;7.85;4.43;;;;;;;7.12;98.71;101411.09;9999515;29;20063;-86
2023/03/20 23:06:28;;;;;;;7.30;4.07;;;;;;;7.17;98.71;101414.78;10066213;29;20058;-86
2023/03/20 23:17:37;;;;;;;14.23;6.20;;;;;;;7.19;98.87;101414.84;10098788;29;20061;-85
2023/03/20 23:22:58;;;;;;;8.87;4.33;;;;;;;7.19;98.94;101407.94;10101739;29;20156;-86
2023/03/20 23:28:17;;;;;;;9.75;5.10;;;;;;;7.22;98.79;101408.06;10112269;29;20049;-86
2023/03/20 23:33:20;;;;;;;8.95;4.75;;;;;;;7.23;98.91;101407.22;10105202;29;20600;-85
2023/03/20 23:38:28;;;;;;;10.60;5.13;;;;;;;7.26;99.14;101402.13;10082815;29;20764;-86
2023/03/20 23:43:44;;;;;;;11.07;5.00;;;;;;;7.23;98.94;101409.81;10103394;29;20048;-85
2023/03/20 23:55:27;;;;;;;10.13;5.15;;;;;;;7.23;99.24;101396.78;10081783;29;20057;-86
